sensor_id;sensor_type;location;lat;lon;timestamp;P1;durP1;ratioP1;P2;durP2;ratioP2
20042;SDS011;10182;52.896;6.496;2023-07-16T00:02:19;7.70;;;2.57;;
20042;SDS011;10182;52.896;6.496;2023-07-16T00:07:22;7.57;;;2.80;;
20042;SDS011;10182;52.896;6.496;2023-07-16T00:12:24;7.83;;;2.90;;
20042;SDS011;10182;52.896;6.496;2023-07-16T00:17:25;8.90;;;2.77;;
20042;SDS011;10182;52.896;6.496;2023-07-16T00:22:29;14.50;;;3.20;;
20042;SDS011;10182;52.896;6.496;2023-07-16T00:27:30;8.93;;;3.20;;
20042;SDS011;10182;52.896;6.496;2023-07-16T00:32:32;7.73;;;2.53;;
20042;SDS011;10182;52.896;6.496;2023-07-16T00:37:35;10.30;;;3.40;;
20042;SDS011;10182;52.896;6.496;2023-07-16T00:42:37;9.83;;;3.40;;
20042;SDS011;10182;52.896;6.496;2023-07-16T00:47:39;9.30;;;2.90;;
20042;SDS011;10182;52.896;6.496;2023-07-16T00:52:43;12.53;;;3.33;;
20042;SDS011;10182;52.896;6.496;2023-07-16T00:57:45;6.73;;;3.20;;
20042;SDS011;10182;52.896;6.496;2023-07-16T01:02:48;9.07;;;3.30;;
20042;SDS011;10182;52.896;6.496;2023-07-16T01:07:52;8.50;;;3.13;;
20042;SDS011;10182;52.896;6.496;2023-07-16T01:12:59;10.43;;;3.03;;
20042;SDS011;10182;52.896;6.496;2023-07-16T01:18:03;7.80;;;2.70;;
20042;SDS011;10182;52.896;6.496;2023-07-16T01:23:11;10.03;;;3.27;;
20042;SDS011;10182;52.896;6.496;2023-07-16T01:28:34;6.43;;;3.07;;
20042;SDS011;10182;52.896;6.496;2023-07-16T01:33:48;7.03;;;3.00;;
20042;SDS011;10182;52.896;6.496;2023-07-16T01:38:52;8.33;;;3.47;;
20042;SDS011;10182;52.896;6.496;2023-07-16T01:43:54;7.10;;;3.40;;
20042;SDS011;10182;52.896;6.496;2023-07-16T01:48:57;8.47;;;3.57;;
20042;SDS011;10182;52.896;6.496;2023-07-16T01:53:58;8.93;;;3.00;;
20042;SDS011;10182;52.896;6.496;2023-07-16T01:59:00;8.40;;;3.57;;
20042;SDS011;10182;52.896;6.496;2023-07-16T02:04:03;8.10;;;4.03;;
20042;SDS011;10182;52.896;6.496;2023-07-16T02:09:05;8.30;;;4.13;;
20042;SDS011;10182;52.896;6.496;2023-07-16T02:14:07;7.20;;;3.67;;
20042;SDS011;10182;52.896;6.496;2023-07-16T02:19:10;8.50;;;4.13;;
20042;SDS011;10182;52.896;6.496;2023-07-16T02:24:11;8.43;;;3.87;;
20042;SDS011;10182;52.896;6.496;2023-07-16T02:29:13;6.53;;;3.33;;
20042;SDS011;10182;52.896;6.496;2023-07-16T02:34:16;13.10;;;4.40;;
20042;SDS011;10182;52.896;6.496;2023-07-16T02:39:20;8.63;;;3.90;;
20042;SDS011;10182;52.896;6.496;2023-07-16T02:44:22;10.43;;;4.53;;
20042;SDS011;10182;52.896;6.496;2023-07-16T02:49:25;7.60;;;4.10;;
20042;SDS011;10182;52.896;6.496;2023-07-16T02:54:26;10.97;;;4.20;;
20042;SDS011;10182;52.896;6.496;2023-07-16T02:59:28;7.43;;;3.77;;
20042;SDS011;10182;52.896;6.496;2023-07-16T03:04:31;8.27;;;4.10;;
20042;SDS011;10182;52.896;6.496;2023-07-16T03:09:33;8.40;;;4.20;;
20042;SDS011;10182;52.896;6.496;2023-07-16T03:14:34;12.90;;;4.33;;
20042;SDS011;10182;52.896;6.496;2023-07-16T03:19:37;8.30;;;4.20;;
20042;SDS011;10182;52.896;6.496;2023-07-16T03:24:39;8.10;;;4.60;;
20042;SDS011;10182;52.896;6.496;2023-07-16T03:29:41;10.83;;;4.70;;
20042;SDS011;10182;52.896;6.496;2023-07-16T03:34:44;8.33;;;4.50;;
20042;SDS011;10182;52.896;6.496;2023-07-16T03:39:45;11.83;;;4.97;;
20042;SDS011;10182;52.896;6.496;2023-07-16T03:44:47;8.57;;;4.13;;
20042;SDS011;10182;52.896;6.496;2023-07-16T03:49:50;10.13;;;4.43;;
20042;SDS011;10182;52.896;6.496;2023-07-16T03:54:52;8.90;;;4.87;;
20042;SDS011;10182;52.896;6.496;2023-07-16T03:59:53;7.87;;;5.10;;
20042;SDS011;10182;52.896;6.496;2023-07-16T04:04:58;12.13;;;4.93;;
20042;SDS011;10182;52.896;6.496;2023-07-16T04:09:59;11.87;;;5.60;;
20042;SDS011;10182;52.896;6.496;2023-07-16T04:15:06;10.83;;;5.20;;
20042;SDS011;10182;52.896;6.496;2023-07-16T04:20:10;11.47;;;5.70;;
20042;SDS011;10182;52.896;6.496;2023-07-16T04:25:12;11.00;;;4.73;;
20042;SDS011;10182;52.896;6.496;2023-07-16T04:30:14;9.90;;;5.60;;
20042;SDS011;10182;52.896;6.496;2023-07-16T04:35:17;6.90;;;4.23;;
20042;SDS011;10182;52.896;6.496;2023-07-16T04:40:18;11.27;;;5.00;;
20042;SDS011;10182;52.896;6.496;2023-07-16T04:45:20;9.83;;;5.27;;
20042;SDS011;10182;52.896;6.496;2023-07-16T04:50:23;9.60;;;5.13;;
20042;SDS011;10182;52.896;6.496;2023-07-16T04:55:25;12.20;;;4.80;;
20042;SDS011;10182;52.896;6.496;2023-07-16T05:00:26;11.80;;;5.40;;
20042;SDS011;10182;52.896;6.496;2023-07-16T05:05:29;8.40;;;4.67;;
20042;SDS011;10182;52.896;6.496;2023-07-16T05:10:31;13.50;;;4.60;;
20042;SDS011;10182;52.896;6.496;2023-07-16T05:15:33;9.17;;;4.50;;
20042;SDS011;10182;52.896;6.496;2023-07-16T05:20:36;7.27;;;3.93;;
20042;SDS011;10182;52.896;6.496;2023-07-16T05:25:37;10.57;;;4.57;;
20042;SDS011;10182;52.896;6.496;2023-07-16T05:30:39;10.90;;;4.37;;
20042;SDS011;10182;52.896;6.496;2023-07-16T05:35:42;7.60;;;3.90;;
20042;SDS011;10182;52.896;6.496;2023-07-16T05:40:44;10.10;;;4.37;;
20042;SDS011;10182;52.896;6.496;2023-07-16T05:45:45;8.97;;;3.97;;
20042;SDS011;10182;52.896;6.496;2023-07-16T05:50:48;10.70;;;4.63;;
20042;SDS011;10182;52.896;6.496;2023-07-16T05:55:50;8.83;;;4.30;;
20042;SDS011;10182;52.896;6.496;2023-07-16T06:00:52;10.93;;;4.90;;
20042;SDS011;10182;52.896;6.496;2023-07-16T06:05:55;9.83;;;4.80;;
20042;SDS011;10182;52.896;6.496;2023-07-16T06:10:56;9.13;;;4.50;;
20042;SDS011;10182;52.896;6.496;2023-07-16T06:15:58;8.90;;;4.57;;
20042;SDS011;10182;52.896;6.496;2023-07-16T06:21:01;10.70;;;5.43;;
20042;SDS011;10182;52.896;6.496;2023-07-16T06:26:03;9.77;;;4.77;;
20042;SDS011;10182;52.896;6.496;2023-07-16T06:31:04;9.47;;;4.97;;
20042;SDS011;10182;52.896;6.496;2023-07-16T06:36:07;12.83;;;5.50;;
20042;SDS011;10182;52.896;6.496;2023-07-16T06:41:09;9.53;;;5.20;;
20042;SDS011;10182;52.896;6.496;2023-07-16T06:46:11;9.60;;;5.20;;
20042;SDS011;10182;52.896;6.496;2023-07-16T06:51:14;10.17;;;5.07;;
20042;SDS011;10182;52.896;6.496;2023-07-16T06:56:15;10.80;;;5.37;;
20042;SDS011;10182;52.896;6.496;2023-07-16T07:01:17;8.83;;;4.83;;
20042;SDS011;10182;52.896;6.496;2023-07-16T07:06:20;10.77;;;5.70;;
20042;SDS011;10182;52.896;6.496;2023-07-16T07:11:23;8.90;;;5.37;;
20042;SDS011;10182;52.896;6.496;2023-07-16T07:16:24;9.17;;;5.00;;
20042;SDS011;10182;52.896;6.496;2023-07-16T07:21:27;9.00;;;5.00;;
20042;SDS011;10182;52.896;6.496;2023-07-16T07:26:29;7.80;;;5.33;;
20042;SDS011;10182;52.896;6.496;2023-07-16T07:31:31;10.93;;;5.70;;
20042;SDS011;10182;52.896;6.496;2023-07-16T07:36:34;10.47;;;5.00;;
20042;SDS011;10182;52.896;6.496;2023-07-16T07:41:35;10.30;;;5.17;;
20042;SDS011;10182;52.896;6.496;2023-07-16T07:46:37;9.40;;;5.33;;
20042;SDS011;10182;52.896;6.496;2023-07-16T07:51:40;9.00;;;5.10;;
20042;SDS011;10182;52.896;6.496;2023-07-16T07:56:42;7.83;;;4.97;;
20042;SDS011;10182;52.896;6.496;2023-07-16T08:01:44;8.07;;;4.53;;
20042;SDS011;10182;52.896;6.496;2023-07-16T08:06:47;10.40;;;4.97;;
20042;SDS011;10182;52.896;6.496;2023-07-16T08:11:48;9.83;;;5.53;;
20042;SDS011;10182;52.896;6.496;2023-07-16T08:16:50;10.27;;;5.33;;
20042;SDS011;10182;52.896;6.496;2023-07-16T08:21:53;10.07;;;5.27;;
20042;SDS011;10182;52.896;6.496;2023-07-16T08:26:54;11.30;;;5.07;;
20042;SDS011;10182;52.896;6.496;2023-07-16T08:31:56;9.23;;;5.20;;
20042;SDS011;10182;52.896;6.496;2023-07-16T08:36:59;10.90;;;5.60;;
20042;SDS011;10182;52.896;6.496;2023-07-16T08:42:01;10.50;;;5.43;;
20042;SDS011;10182;52.896;6.496;2023-07-16T08:47:03;8.53;;;5.17;;
20042;SDS011;10182;52.896;6.496;2023-07-16T08:52:07;7.27;;;5.70;;
20042;SDS011;10182;52.896;6.496;2023-07-16T08:57:10;13.00;;;5.00;;
20042;SDS011;10182;52.896;6.496;2023-07-16T09:02:13;11.13;;;5.37;;
20042;SDS011;10182;52.896;6.496;2023-07-16T09:07:18;11.20;;;5.37;;
20042;SDS011;10182;52.896;6.496;2023-07-16T09:12:19;9.70;;;5.33;;
20042;SDS011;10182;52.896;6.496;2023-07-16T09:17:25;8.83;;;5.13;;
20042;SDS011;10182;52.896;6.496;2023-07-16T09:22:29;11.67;;;5.20;;
20042;SDS011;10182;52.896;6.496;2023-07-16T09:27:31;8.87;;;5.00;;
20042;SDS011;10182;52.896;6.496;2023-07-16T09:32:33;9.43;;;4.50;;
20042;SDS011;10182;52.896;6.496;2023-07-16T09:37:36;9.97;;;4.70;;
20042;SDS011;10182;52.896;6.496;2023-07-16T09:42:39;8.73;;;5.60;;
20042;SDS011;10182;52.896;6.496;2023-07-16T09:47:43;6.57;;;4.70;;
20042;SDS011;10182;52.896;6.496;2023-07-16T09:52:46;9.43;;;5.50;;
20042;SDS011;10182;52.896;6.496;2023-07-16T09:57:49;7.73;;;4.93;;
20042;SDS011;10182;52.896;6.496;2023-07-16T10:02:53;10.63;;;4.97;;
20042;SDS011;10182;52.896;6.496;2023-07-16T10:08:00;9.23;;;4.93;;
20042;SDS011;10182;52.896;6.496;2023-07-16T10:13:03;7.83;;;4.67;;
20042;SDS011;10182;52.896;6.496;2023-07-16T10:18:04;9.47;;;4.90;;
20042;SDS011;10182;52.896;6.496;2023-07-16T10:23:11;9.30;;;4.50;;
20042;SDS011;10182;52.896;6.496;2023-07-16T10:28:13;13.63;;;5.90;;
20042;SDS011;10182;52.896;6.496;2023-07-16T10:33:15;7.70;;;5.73;;
20042;SDS011;10182;52.896;6.496;2023-07-16T10:38:19;11.03;;;5.37;;
20042;SDS011;10182;52.896;6.496;2023-07-16T10:43:20;7.20;;;4.40;;
20042;SDS011;10182;52.896;6.496;2023-07-16T10:48:24;6.63;;;4.47;;
20042;SDS011;10182;52.896;6.496;2023-07-16T10:53:27;7.17;;;4.23;;
20042;SDS011;10182;52.896;6.496;2023-07-16T10:58:29;6.40;;;4.43;;
20042;SDS011;10182;52.896;6.496;2023-07-16T11:03:31;8.20;;;4.07;;
20042;SDS011;10182;52.896;6.496;2023-07-16T11:08:34;8.10;;;4.43;;
20042;SDS011;10182;52.896;6.496;2023-07-16T11:13:35;5.93;;;4.00;;
20042;SDS011;10182;52.896;6.496;2023-07-16T11:18:37;8.93;;;4.90;;
20042;SDS011;10182;52.896;6.496;2023-07-16T11:23:40;7.60;;;4.60;;
20042;SDS011;10182;52.896;6.496;2023-07-16T11:28:42;5.70;;;4.63;;
20042;SDS011;10182;52.896;6.496;2023-07-16T11:33:44;11.13;;;5.43;;
20042;SDS011;10182;52.896;6.496;2023-07-16T11:38:49;8.60;;;5.17;;
20042;SDS011;10182;52.896;6.496;2023-07-16T11:43:51;9.73;;;5.60;;
20042;SDS011;10182;52.896;6.496;2023-07-16T11:48:52;8.00;;;4.57;;
20042;SDS011;10182;52.896;6.496;2023-07-16T11:53:56;9.43;;;4.87;;
20042;SDS011;10182;52.896;6.496;2023-07-16T11:58:58;9.77;;;5.20;;
20042;SDS011;10182;52.896;6.496;2023-07-16T12:03:59;9.70;;;5.00;;
20042;SDS011;10182;52.896;6.496;2023-07-16T12:09:02;7.93;;;4.90;;
20042;SDS011;10182;52.896;6.496;2023-07-16T12:14:05;8.57;;;4.63;;
20042;SDS011;10182;52.896;6.496;2023-07-16T12:19:07;8.23;;;4.73;;
20042;SDS011;10182;52.896;6.496;2023-07-16T12:24:11;8.83;;;5.30;;
20042;SDS011;10182;52.896;6.496;2023-07-16T12:29:13;7.00;;;4.47;;
20042;SDS011;10182;52.896;6.496;2023-07-16T12:34:14;9.73;;;5.20;;
20042;SDS011;10182;52.896;6.496;2023-07-16T12:39:17;14.27;;;5.37;;
20042;SDS011;10182;52.896;6.496;2023-07-16T12:44:19;9.47;;;5.20;;
20042;SDS011;10182;52.896;6.496;2023-07-16T12:49:21;9.33;;;5.07;;
20042;SDS011;10182;52.896;6.496;2023-07-16T12:54:24;7.13;;;4.97;;
20042;SDS011;10182;52.896;6.496;2023-07-16T12:59:25;9.13;;;5.50;;
20042;SDS011;10182;52.896;6.496;2023-07-16T13:04:27;8.80;;;5.60;;
20042;SDS011;10182;52.896;6.496;2023-07-16T13:09:30;9.57;;;5.27;;
20042;SDS011;10182;52.896;6.496;2023-07-16T13:14:32;6.43;;;4.20;;
20042;SDS011;10182;52.896;6.496;2023-07-16T13:19:34;5.23;;;2.80;;
20042;SDS011;10182;52.896;6.496;2023-07-16T13:24:37;3.97;;;3.17;;
20042;SDS011;10182;52.896;6.496;2023-07-16T13:29:39;7.30;;;3.00;;
20042;SDS011;10182;52.896;6.496;2023-07-16T13:34:40;6.93;;;3.47;;
20042;SDS011;10182;52.896;6.496;2023-07-16T13:39:43;5.43;;;2.97;;
20042;SDS011;10182;52.896;6.496;2023-07-16T13:44:45;5.20;;;2.70;;
20042;SDS011;10182;52.896;6.496;2023-07-16T13:49:46;7.47;;;3.80;;
20042;SDS011;10182;52.896;6.496;2023-07-16T13:54:49;5.23;;;3.07;;
20042;SDS011;10182;52.896;6.496;2023-07-16T13:59:51;4.27;;;3.23;;
20042;SDS011;10182;52.896;6.496;2023-07-16T14:04:53;5.53;;;3.20;;
20042;SDS011;10182;52.896;6.496;2023-07-16T14:09:56;8.50;;;3.27;;
20042;SDS011;10182;52.896;6.496;2023-07-16T14:14:58;5.13;;;2.97;;
20042;SDS011;10182;52.896;6.496;2023-07-16T14:19:59;4.50;;;3.00;;
20042;SDS011;10182;52.896;6.496;2023-07-16T14:25:02;5.50;;;3.10;;
20042;SDS011;10182;52.896;6.496;2023-07-16T14:30:05;5.37;;;3.00;;
20042;SDS011;10182;52.896;6.496;2023-07-16T14:35:08;7.47;;;2.93;;
20042;SDS011;10182;52.896;6.496;2023-07-16T14:40:13;9.53;;;4.77;;
20042;SDS011;10182;52.896;6.496;2023-07-16T14:45:15;8.23;;;3.53;;
20042;SDS011;10182;52.896;6.496;2023-07-16T14:50:17;8.23;;;2.70;;
20042;SDS011;10182;52.896;6.496;2023-07-16T14:55:23;9.53;;;3.10;;
20042;SDS011;10182;52.896;6.496;2023-07-16T15:00:25;7.17;;;2.97;;
20042;SDS011;10182;52.896;6.496;2023-07-16T15:05:27;7.43;;;2.80;;
20042;SDS011;10182;52.896;6.496;2023-07-16T15:10:30;9.33;;;3.07;;
20042;SDS011;10182;52.896;6.496;2023-07-16T15:15:31;6.30;;;3.00;;
20042;SDS011;10182;52.896;6.496;2023-07-16T15:20:33;8.67;;;3.20;;
20042;SDS011;10182;52.896;6.496;2023-07-16T15:25:36;10.03;;;4.33;;
20042;SDS011;10182;52.896;6.496;2023-07-16T15:30:38;10.37;;;3.90;;
20042;SDS011;10182;52.896;6.496;2023-07-16T15:35:39;8.30;;;2.40;;
20042;SDS011;10182;52.896;6.496;2023-07-16T15:40:43;10.50;;;3.00;;
20042;SDS011;10182;52.896;6.496;2023-07-16T15:45:44;8.97;;;2.70;;
20042;SDS011;10182;52.896;6.496;2023-07-16T15:50:46;9.60;;;3.33;;
20042;SDS011;10182;52.896;6.496;2023-07-16T15:55:49;6.83;;;2.97;;
20042;SDS011;10182;52.896;6.496;2023-07-16T16:00:51;9.53;;;3.10;;
20042;SDS011;10182;52.896;6.496;2023-07-16T16:05:53;14.97;;;3.40;;
20042;SDS011;10182;52.896;6.496;2023-07-16T16:10:56;12.83;;;3.70;;
20042;SDS011;10182;52.896;6.496;2023-07-16T16:15:58;12.10;;;3.27;;
20042;SDS011;10182;52.896;6.496;2023-07-16T16:21:00;14.23;;;2.43;;
20042;SDS011;10182;52.896;6.496;2023-07-16T16:26:04;8.67;;;2.70;;
20042;SDS011;10182;52.896;6.496;2023-07-16T16:31:05;8.50;;;2.53;;
20042;SDS011;10182;52.896;6.496;2023-07-16T16:36:08;11.20;;;2.50;;
20042;SDS011;10182;52.896;6.496;2023-07-16T16:41:12;8.63;;;2.40;;
20042;SDS011;10182;52.896;6.496;2023-07-16T16:46:13;8.63;;;2.23;;
20042;SDS011;10182;52.896;6.496;2023-07-16T16:51:15;13.03;;;2.43;;
20042;SDS011;10182;52.896;6.496;2023-07-16T16:56:18;7.80;;;2.30;;
20042;SDS011;10182;52.896;6.496;2023-07-16T17:01:20;10.93;;;2.77;;
20042;SDS011;10182;52.896;6.496;2023-07-16T17:06:22;8.17;;;2.70;;
20042;SDS011;10182;52.896;6.496;2023-07-16T17:11:25;9.27;;;2.70;;
20042;SDS011;10182;52.896;6.496;2023-07-16T17:16:27;11.13;;;2.77;;
20042;SDS011;10182;52.896;6.496;2023-07-16T17:21:29;7.53;;;2.80;;
20042;SDS011;10182;52.896;6.496;2023-07-16T17:26:32;10.63;;;2.87;;
20042;SDS011;10182;52.896;6.496;2023-07-16T17:31:34;9.20;;;3.10;;
20042;SDS011;10182;52.896;6.496;2023-07-16T17:36:36;11.67;;;2.73;;
20042;SDS011;10182;52.896;6.496;2023-07-16T17:41:39;10.03;;;3.00;;
20042;SDS011;10182;52.896;6.496;2023-07-16T17:46:41;6.87;;;2.53;;
20042;SDS011;10182;52.896;6.496;2023-07-16T17:51:42;9.97;;;3.03;;
20042;SDS011;10182;52.896;6.496;2023-07-16T17:56:45;9.73;;;2.80;;
20042;SDS011;10182;52.896;6.496;2023-07-16T18:01:47;10.93;;;3.00;;
20042;SDS011;10182;52.896;6.496;2023-07-16T18:06:49;8.63;;;3.27;;
20042;SDS011;10182;52.896;6.496;2023-07-16T18:11:53;6.43;;;2.50;;
20042;SDS011;10182;52.896;6.496;2023-07-16T18:16:56;10.47;;;2.60;;
20042;SDS011;10182;52.896;6.496;2023-07-16T18:21:58;12.53;;;3.10;;
20042;SDS011;10182;52.896;6.496;2023-07-16T18:27:01;9.60;;;3.10;;
20042;SDS011;10182;52.896;6.496;2023-07-16T18:32:04;13.10;;;3.27;;
20042;SDS011;10182;52.896;6.496;2023-07-16T18:37:07;11.63;;;3.13;;
20042;SDS011;10182;52.896;6.496;2023-07-16T18:42:10;10.63;;;3.10;;
20042;SDS011;10182;52.896;6.496;2023-07-16T18:47:11;13.63;;;3.63;;
20042;SDS011;10182;52.896;6.496;2023-07-16T18:52:13;12.63;;;3.20;;
20042;SDS011;10182;52.896;6.496;2023-07-16T18:57:16;12.73;;;3.60;;
20042;SDS011;10182;52.896;6.496;2023-07-16T19:02:18;9.90;;;3.50;;
20042;SDS011;10182;52.896;6.496;2023-07-16T19:07:20;13.40;;;3.43;;
20042;SDS011;10182;52.896;6.496;2023-07-16T19:12:23;11.10;;;3.57;;
20042;SDS011;10182;52.896;6.496;2023-07-16T19:17:26;22.47;;;3.97;;
20042;SDS011;10182;52.896;6.496;2023-07-16T19:22:29;14.47;;;3.90;;
20042;SDS011;10182;52.896;6.496;2023-07-16T19:27:32;14.47;;;4.30;;
20042;SDS011;10182;52.896;6.496;2023-07-16T19:32:33;12.57;;;3.10;;
20042;SDS011;10182;52.896;6.496;2023-07-16T19:37:35;12.30;;;3.97;;
20042;SDS011;10182;52.896;6.496;2023-07-16T19:42:41;13.70;;;4.13;;
20042;SDS011;10182;52.896;6.496;2023-07-16T19:47:43;12.60;;;4.27;;
20042;SDS011;10182;52.896;6.496;2023-07-16T19:52:45;10.53;;;3.63;;
20042;SDS011;10182;52.896;6.496;2023-07-16T19:57:48;11.57;;;3.00;;
20042;SDS011;10182;52.896;6.496;2023-07-16T20:02:49;10.30;;;3.10;;
20042;SDS011;10182;52.896;6.496;2023-07-16T20:07:51;9.03;;;3.50;;
20042;SDS011;10182;52.896;6.496;2023-07-16T20:12:54;13.97;;;3.83;;
20042;SDS011;10182;52.896;6.496;2023-07-16T20:17:56;8.90;;;3.37;;
20042;SDS011;10182;52.896;6.496;2023-07-16T20:22:58;11.00;;;3.80;;
20042;SDS011;10182;52.896;6.496;2023-07-16T20:28:01;8.83;;;3.33;;
20042;SDS011;10182;52.896;6.496;2023-07-16T20:33:04;9.97;;;3.90;;
20042;SDS011;10182;52.896;6.496;2023-07-16T20:38:06;11.93;;;4.43;;
20042;SDS011;10182;52.896;6.496;2023-07-16T20:43:09;14.17;;;4.00;;
20042;SDS011;10182;52.896;6.496;2023-07-16T20:48:11;14.77;;;4.47;;
20042;SDS011;10182;52.896;6.496;2023-07-16T20:53:16;12.43;;;4.10;;
20042;SDS011;10182;52.896;6.496;2023-07-16T20:58:20;13.37;;;4.20;;
20042;SDS011;10182;52.896;6.496;2023-07-16T21:03:22;10.57;;;3.33;;
20042;SDS011;10182;52.896;6.496;2023-07-16T21:08:23;11.17;;;4.07;;
20042;SDS011;10182;52.896;6.496;2023-07-16T21:13:26;12.07;;;3.77;;
20042;SDS011;10182;52.896;6.496;2023-07-16T21:18:28;13.40;;;4.47;;
20042;SDS011;10182;52.896;6.496;2023-07-16T21:23:30;12.23;;;4.00;;
20042;SDS011;10182;52.896;6.496;2023-07-16T21:28:33;12.20;;;3.93;;
20042;SDS011;10182;52.896;6.496;2023-07-16T21:33:34;13.97;;;4.60;;
20042;SDS011;10182;52.896;6.496;2023-07-16T21:38:36;5.97;;;3.03;;
20042;SDS011;10182;52.896;6.496;2023-07-16T21:43:40;6.73;;;3.23;;
20042;SDS011;10182;52.896;6.496;2023-07-16T21:48:42;10.07;;;3.80;;
20042;SDS011;10182;52.896;6.496;2023-07-16T21:53:44;9.33;;;3.63;;
20042;SDS011;10182;52.896;6.496;2023-07-16T21:58:47;8.73;;;4.07;;
20042;SDS011;10182;52.896;6.496;2023-07-16T22:03:49;9.00;;;3.90;;
20042;SDS011;10182;52.896;6.496;2023-07-16T22:08:51;12.00;;;4.23;;
20042;SDS011;10182;52.896;6.496;2023-07-16T22:13:54;9.97;;;4.10;;
20042;SDS011;10182;52.896;6.496;2023-07-16T22:18:55;10.27;;;4.17;;
20042;SDS011;10182;52.896;6.496;2023-07-16T22:23:57;7.43;;;4.27;;
20042;SDS011;10182;52.896;6.496;2023-07-16T22:29:00;6.60;;;3.63;;
20042;SDS011;10182;52.896;6.496;2023-07-16T22:34:02;12.93;;;4.67;;
20042;SDS011;10182;52.896;6.496;2023-07-16T22:39:03;8.07;;;4.03;;
20042;SDS011;10182;52.896;6.496;2023-07-16T22:44:06;11.57;;;4.37;;
20042;SDS011;10182;52.896;6.496;2023-07-16T22:49:08;7.17;;;4.10;;
20042;SDS011;10182;52.896;6.496;2023-07-16T22:54:10;7.13;;;4.60;;
20042;SDS011;10182;52.896;6.496;2023-07-16T22:59:13;8.20;;;4.03;;
20042;SDS011;10182;52.896;6.496;2023-07-16T23:04:14;8.13;;;4.30;;
20042;SDS011;10182;52.896;6.496;2023-07-16T23:09:16;9.07;;;4.20;;
20042;SDS011;10182;52.896;6.496;2023-07-16T23:14:19;11.13;;;4.30;;
20042;SDS011;10182;52.896;6.496;2023-07-16T23:19:21;8.50;;;4.00;;
20042;SDS011;10182;52.896;6.496;2023-07-16T23:24:23;10.23;;;4.30;;
20042;SDS011;10182;52.896;6.496;2023-07-16T23:29:26;8.10;;;4.17;;
20042;SDS011;10182;52.896;6.496;2023-07-16T23:34:27;7.70;;;3.97;;
20042;SDS011;10182;52.896;6.496;2023-07-16T23:39:29;5.33;;;3.93;;
20042;SDS011;10182;52.896;6.496;2023-07-16T23:44:32;7.17;;;4.20;;
20042;SDS011;10182;52.896;6.496;2023-07-16T23:49:34;6.93;;;4.30;;
20042;SDS011;10182;52.896;6.496;2023-07-16T23:54:36;6.67;;;4.10;;
20042;SDS011;10182;52.896;6.496;2023-07-16T23:59:39;4.73;;;3.97;;
